sensor_id;sensor_type;location;lat;lon;timestamp;P1;durP1;ratioP1;P2;durP2;ratioP2
48179;SDS011;33975;47.432;18.918;2022-07-06T00:00:59;7.28;;;4.12;;
48179;SDS011;33975;47.432;18.918;2022-07-06T00:03:26;6.20;;;3.67;;
48179;SDS011;33975;47.432;18.918;2022-07-06T00:05:57;7.95;;;3.95;;
48179;SDS011;33975;47.432;18.918;2022-07-06T00:08:27;7.53;;;3.87;;
48179;SDS011;33975;47.432;18.918;2022-07-06T00:10:55;7.30;;;4.20;;
48179;SDS011;33975;47.432;18.918;2022-07-06T00:13:22;7.57;;;4.37;;
48179;SDS011;33975;47.432;18.918;2022-07-06T00:15:50;6.68;;;4.07;;
48179;SDS011;33975;47.432;18.918;2022-07-06T00:18:18;7.22;;;4.00;;
48179;SDS011;33975;47.432;18.918;2022-07-06T00:20:46;7.03;;;4.12;;
48179;SDS011;33975;47.432;18.918;2022-07-06T00:23:14;7.78;;;4.20;;
48179;SDS011;33975;47.432;18.918;2022-07-06T00:25:42;7.78;;;4.20;;
48179;SDS011;33975;47.432;18.918;2022-07-06T00:28:10;6.37;;;4.05;;
48179;SDS011;33975;47.432;18.918;2022-07-06T00:30:41;6.32;;;4.00;;
48179;SDS011;33975;47.432;18.918;2022-07-06T00:33:08;7.50;;;4.10;;
48179;SDS011;33975;47.432;18.918;2022-07-06T00:35:36;8.20;;;4.05;;
48179;SDS011;33975;47.432;18.918;2022-07-06T00:38:04;5.72;;;3.70;;
48179;SDS011;33975;47.432;18.918;2022-07-06T00:40:33;7.00;;;4.00;;
48179;SDS011;33975;47.432;18.918;2022-07-06T00:43:01;5.60;;;4.15;;
48179;SDS011;33975;47.432;18.918;2022-07-06T00:45:29;6.60;;;3.90;;
48179;SDS011;33975;47.432;18.918;2022-07-06T00:47:57;7.12;;;4.25;;
48179;SDS011;33975;47.432;18.918;2022-07-06T00:50:24;5.25;;;3.80;;
48179;SDS011;33975;47.432;18.918;2022-07-06T00:52:53;7.78;;;4.12;;
48179;SDS011;33975;47.432;18.918;2022-07-06T00:55:32;6.35;;;4.25;;
48179;SDS011;33975;47.432;18.918;2022-07-06T00:58:00;6.32;;;3.95;;
48179;SDS011;33975;47.432;18.918;2022-07-06T01:00:29;5.40;;;3.42;;
48179;SDS011;33975;47.432;18.918;2022-07-06T01:02:57;5.75;;;3.70;;
48179;SDS011;33975;47.432;18.918;2022-07-06T01:05:26;8.70;;;4.47;;
48179;SDS011;33975;47.432;18.918;2022-07-06T01:07:53;5.87;;;3.80;;
48179;SDS011;33975;47.432;18.918;2022-07-06T01:10:21;6.22;;;4.05;;
48179;SDS011;33975;47.432;18.918;2022-07-06T01:12:50;5.93;;;4.00;;
48179;SDS011;33975;47.432;18.918;2022-07-06T01:15:20;9.20;;;4.05;;
48179;SDS011;33975;47.432;18.918;2022-07-06T01:17:51;6.75;;;4.35;;
48179;SDS011;33975;47.432;18.918;2022-07-06T01:20:21;7.25;;;4.40;;
48179;SDS011;33975;47.432;18.918;2022-07-06T01:22:52;5.65;;;3.75;;
48179;SDS011;33975;47.432;18.918;2022-07-06T01:25:21;6.30;;;3.80;;
48179;SDS011;33975;47.432;18.918;2022-07-06T01:27:49;5.60;;;3.80;;
48179;SDS011;33975;47.432;18.918;2022-07-06T01:30:18;5.82;;;4.10;;
48179;SDS011;33975;47.432;18.918;2022-07-06T01:32:46;6.50;;;4.12;;
48179;SDS011;33975;47.432;18.918;2022-07-06T01:35:15;4.82;;;3.62;;
48179;SDS011;33975;47.432;18.918;2022-07-06T01:37:43;5.80;;;4.35;;
48179;SDS011;33975;47.432;18.918;2022-07-06T01:40:13;7.22;;;4.70;;
48179;SDS011;33975;47.432;18.918;2022-07-06T01:42:41;6.30;;;4.32;;
48179;SDS011;33975;47.432;18.918;2022-07-06T01:45:09;6.05;;;4.35;;
48179;SDS011;33975;47.432;18.918;2022-07-06T01:47:37;8.32;;;4.05;;
48179;SDS011;33975;47.432;18.918;2022-07-06T01:50:05;6.37;;;4.62;;
48179;SDS011;33975;47.432;18.918;2022-07-06T01:52:35;6.05;;;4.10;;
48179;SDS011;33975;47.432;18.918;2022-07-06T01:55:03;7.65;;;4.95;;
48179;SDS011;33975;47.432;18.918;2022-07-06T01:57:32;5.80;;;4.37;;
48179;SDS011;33975;47.432;18.918;2022-07-06T02:00:00;7.30;;;5.32;;
48179;SDS011;33975;47.432;18.918;2022-07-06T02:02:38;8.07;;;4.85;;
48179;SDS011;33975;47.432;18.918;2022-07-06T02:05:08;7.50;;;5.07;;
48179;SDS011;33975;47.432;18.918;2022-07-06T02:07:36;6.85;;;4.97;;
48179;SDS011;33975;47.432;18.918;2022-07-06T02:10:06;10.35;;;5.60;;
48179;SDS011;33975;47.432;18.918;2022-07-06T02:12:34;6.57;;;4.37;;
48179;SDS011;33975;47.432;18.918;2022-07-06T02:15:02;8.82;;;5.05;;
48179;SDS011;33975;47.432;18.918;2022-07-06T02:17:30;7.28;;;5.28;;
48179;SDS011;33975;47.432;18.918;2022-07-06T02:19:59;7.65;;;5.37;;
48179;SDS011;33975;47.432;18.918;2022-07-06T02:22:28;8.60;;;5.32;;
48179;SDS011;33975;47.432;18.918;2022-07-06T02:24:55;7.97;;;5.50;;
48179;SDS011;33975;47.432;18.918;2022-07-06T02:27:23;11.75;;;5.62;;
48179;SDS011;33975;47.432;18.918;2022-07-06T02:29:52;8.15;;;5.53;;
48179;SDS011;33975;47.432;18.918;2022-07-06T02:32:20;9.60;;;5.57;;
48179;SDS011;33975;47.432;18.918;2022-07-06T02:34:49;7.50;;;5.68;;
48179;SDS011;33975;47.432;18.918;2022-07-06T02:37:17;8.18;;;5.68;;
48179;SDS011;33975;47.432;18.918;2022-07-06T02:39:44;9.75;;;6.10;;
48179;SDS011;33975;47.432;18.918;2022-07-06T02:42:12;7.70;;;5.30;;
48179;SDS011;33975;47.432;18.918;2022-07-06T02:44:41;8.00;;;5.85;;
48179;SDS011;33975;47.432;18.918;2022-07-06T02:47:08;6.82;;;5.40;;
48179;SDS011;33975;47.432;18.918;2022-07-06T02:49:37;9.68;;;5.55;;
48179;SDS011;33975;47.432;18.918;2022-07-06T02:52:04;8.27;;;5.70;;
48179;SDS011;33975;47.432;18.918;2022-07-06T02:54:33;8.48;;;5.43;;
48179;SDS011;33975;47.432;18.918;2022-07-06T02:57:01;11.70;;;5.60;;
48179;SDS011;33975;47.432;18.918;2022-07-06T02:59:29;11.05;;;6.05;;
48179;SDS011;33975;47.432;18.918;2022-07-06T03:01:57;9.23;;;6.00;;
48179;SDS011;33975;47.432;18.918;2022-07-06T03:04:27;9.85;;;6.22;;
48179;SDS011;33975;47.432;18.918;2022-07-06T03:06:54;8.25;;;5.87;;
48179;SDS011;33975;47.432;18.918;2022-07-06T03:09:22;8.57;;;6.07;;
48179;SDS011;33975;47.432;18.918;2022-07-06T03:11:50;9.32;;;6.50;;
48179;SDS011;33975;47.432;18.918;2022-07-06T03:14:20;8.10;;;6.15;;
48179;SDS011;33975;47.432;18.918;2022-07-06T03:16:49;9.20;;;5.68;;
48179;SDS011;33975;47.432;18.918;2022-07-06T03:19:18;10.15;;;6.20;;
48179;SDS011;33975;47.432;18.918;2022-07-06T03:21:46;10.05;;;5.65;;
48179;SDS011;33975;47.432;18.918;2022-07-06T03:24:13;10.52;;;5.78;;
48179;SDS011;33975;47.432;18.918;2022-07-06T03:26:41;8.13;;;6.03;;
48179;SDS011;33975;47.432;18.918;2022-07-06T03:29:11;8.60;;;5.68;;
48179;SDS011;33975;47.432;18.918;2022-07-06T03:31:38;12.30;;;5.85;;
48179;SDS011;33975;47.432;18.918;2022-07-06T03:34:07;9.32;;;5.62;;
48179;SDS011;33975;47.432;18.918;2022-07-06T03:36:35;7.82;;;6.03;;
48179;SDS011;33975;47.432;18.918;2022-07-06T03:39:06;9.55;;;5.43;;
48179;SDS011;33975;47.432;18.918;2022-07-06T03:41:34;9.23;;;5.70;;
48179;SDS011;33975;47.432;18.918;2022-07-06T03:44:02;9.45;;;6.05;;
48179;SDS011;33975;47.432;18.918;2022-07-06T03:46:31;12.35;;;6.60;;
48179;SDS011;33975;47.432;18.918;2022-07-06T03:49:02;8.07;;;5.78;;
48179;SDS011;33975;47.432;18.918;2022-07-06T03:51:32;8.82;;;5.87;;
48179;SDS011;33975;47.432;18.918;2022-07-06T03:53:59;7.85;;;5.65;;
48179;SDS011;33975;47.432;18.918;2022-07-06T03:56:27;8.45;;;6.00;;
48179;SDS011;33975;47.432;18.918;2022-07-06T03:58:56;7.90;;;6.07;;
48179;SDS011;33975;47.432;18.918;2022-07-06T04:01:24;8.73;;;5.80;;
48179;SDS011;33975;47.432;18.918;2022-07-06T04:03:52;8.38;;;6.00;;
48179;SDS011;33975;47.432;18.918;2022-07-06T04:06:20;7.72;;;5.85;;
48179;SDS011;33975;47.432;18.918;2022-07-06T04:08:48;8.27;;;5.50;;
48179;SDS011;33975;47.432;18.918;2022-07-06T04:11:16;10.05;;;5.72;;
48179;SDS011;33975;47.432;18.918;2022-07-06T04:13:44;11.05;;;5.55;;
48179;SDS011;33975;47.432;18.918;2022-07-06T04:16:12;8.60;;;5.47;;
48179;SDS011;33975;47.432;18.918;2022-07-06T04:18:40;9.80;;;6.07;;
48179;SDS011;33975;47.432;18.918;2022-07-06T04:21:09;6.93;;;5.72;;
48179;SDS011;33975;47.432;18.918;2022-07-06T04:23:37;9.23;;;6.28;;
48179;SDS011;33975;47.432;18.918;2022-07-06T04:26:05;13.20;;;5.60;;
48179;SDS011;33975;47.432;18.918;2022-07-06T04:28:33;10.68;;;6.12;;
48179;SDS011;33975;47.432;18.918;2022-07-06T04:31:01;8.18;;;5.95;;
48179;SDS011;33975;47.432;18.918;2022-07-06T04:33:29;8.88;;;6.12;;
48179;SDS011;33975;47.432;18.918;2022-07-06T04:35:57;9.95;;;5.82;;
48179;SDS011;33975;47.432;18.918;2022-07-06T04:38:25;7.47;;;5.62;;
48179;SDS011;33975;47.432;18.918;2022-07-06T04:40:54;7.40;;;5.65;;
48179;SDS011;33975;47.432;18.918;2022-07-06T04:43:21;11.70;;;6.03;;
48179;SDS011;33975;47.432;18.918;2022-07-06T04:45:50;7.55;;;5.57;;
48179;SDS011;33975;47.432;18.918;2022-07-06T04:48:17;8.60;;;5.70;;
48179;SDS011;33975;47.432;18.918;2022-07-06T04:50:46;11.18;;;5.62;;
48179;SDS011;33975;47.432;18.918;2022-07-06T04:53:14;8.48;;;6.10;;
48179;SDS011;33975;47.432;18.918;2022-07-06T04:55:42;7.85;;;5.82;;
48179;SDS011;33975;47.432;18.918;2022-07-06T04:58:10;10.15;;;5.72;;
48179;SDS011;33975;47.432;18.918;2022-07-06T05:00:38;10.77;;;6.30;;
48179;SDS011;33975;47.432;18.918;2022-07-06T05:03:06;8.45;;;6.22;;
48179;SDS011;33975;47.432;18.918;2022-07-06T05:05:34;9.20;;;6.22;;
48179;SDS011;33975;47.432;18.918;2022-07-06T05:08:02;11.82;;;6.07;;
48179;SDS011;33975;47.432;18.918;2022-07-06T05:10:33;8.82;;;6.07;;
48179;SDS011;33975;47.432;18.918;2022-07-06T05:13:03;9.57;;;5.50;;
48179;SDS011;33975;47.432;18.918;2022-07-06T05:15:31;10.18;;;6.25;;
48179;SDS011;33975;47.432;18.918;2022-07-06T05:17:59;8.85;;;6.37;;
48179;SDS011;33975;47.432;18.918;2022-07-06T05:20:28;10.13;;;6.20;;
48179;SDS011;33975;47.432;18.918;2022-07-06T05:22:56;8.30;;;5.53;;
48179;SDS011;33975;47.432;18.918;2022-07-06T05:25:24;11.82;;;5.80;;
48179;SDS011;33975;47.432;18.918;2022-07-06T05:27:55;10.68;;;6.32;;
48179;SDS011;33975;47.432;18.918;2022-07-06T05:30:23;8.23;;;5.65;;
48179;SDS011;33975;47.432;18.918;2022-07-06T05:32:51;6.75;;;5.47;;
48179;SDS011;33975;47.432;18.918;2022-07-06T05:35:19;9.25;;;6.05;;
48179;SDS011;33975;47.432;18.918;2022-07-06T05:38:07;10.18;;;5.20;;
48179;SDS011;33975;47.432;18.918;2022-07-06T05:40:35;9.27;;;5.93;;
48179;SDS011;33975;47.432;18.918;2022-07-06T05:43:02;8.00;;;5.90;;
48179;SDS011;33975;47.432;18.918;2022-07-06T05:45:30;8.98;;;5.70;;
48179;SDS011;33975;47.432;18.918;2022-07-06T05:47:58;10.77;;;5.72;;
48179;SDS011;33975;47.432;18.918;2022-07-06T05:50:44;8.85;;;6.00;;
48179;SDS011;33975;47.432;18.918;2022-07-06T05:53:12;8.25;;;6.05;;
48179;SDS011;33975;47.432;18.918;2022-07-06T05:55:47;9.70;;;6.32;;
48179;SDS011;33975;47.432;18.918;2022-07-06T05:58:16;11.15;;;6.18;;
48179;SDS011;33975;47.432;18.918;2022-07-06T06:00:44;8.63;;;5.60;;
48179;SDS011;33975;47.432;18.918;2022-07-06T06:03:12;9.20;;;5.95;;
48179;SDS011;33975;47.432;18.918;2022-07-06T06:05:40;8.20;;;6.03;;
48179;SDS011;33975;47.432;18.918;2022-07-06T06:08:08;12.37;;;6.25;;
48179;SDS011;33975;47.432;18.918;2022-07-06T06:10:38;9.02;;;6.28;;
48179;SDS011;33975;47.432;18.918;2022-07-06T06:13:05;10.35;;;6.95;;
48179;SDS011;33975;47.432;18.918;2022-07-06T06:15:33;9.52;;;6.57;;
48179;SDS011;33975;47.432;18.918;2022-07-06T06:18:03;9.75;;;6.55;;
48179;SDS011;33975;47.432;18.918;2022-07-06T06:20:31;9.95;;;6.37;;
48179;SDS011;33975;47.432;18.918;2022-07-06T06:22:59;10.48;;;7.12;;
48179;SDS011;33975;47.432;18.918;2022-07-06T06:25:28;8.32;;;6.47;;
48179;SDS011;33975;47.432;18.918;2022-07-06T06:27:57;8.32;;;6.57;;
48179;SDS011;33975;47.432;18.918;2022-07-06T06:30:27;9.30;;;6.80;;
48179;SDS011;33975;47.432;18.918;2022-07-06T06:33:17;13.38;;;8.35;;
48179;SDS011;33975;47.432;18.918;2022-07-06T06:35:48;13.43;;;7.43;;
48179;SDS011;33975;47.432;18.918;2022-07-06T06:38:21;10.35;;;6.65;;
48179;SDS011;33975;47.432;18.918;2022-07-06T06:40:50;9.23;;;6.80;;
48179;SDS011;33975;47.432;18.918;2022-07-06T06:43:17;8.48;;;6.07;;
48179;SDS011;33975;47.432;18.918;2022-07-06T06:45:49;12.52;;;6.85;;
48179;SDS011;33975;47.432;18.918;2022-07-06T06:48:20;9.13;;;6.57;;
48179;SDS011;33975;47.432;18.918;2022-07-06T06:50:48;10.65;;;6.53;;
48179;SDS011;33975;47.432;18.918;2022-07-06T06:53:16;8.95;;;6.35;;
48179;SDS011;33975;47.432;18.918;2022-07-06T06:55:44;9.23;;;6.32;;
48179;SDS011;33975;47.432;18.918;2022-07-06T06:58:11;11.88;;;6.53;;
48179;SDS011;33975;47.432;18.918;2022-07-06T07:00:39;9.07;;;6.70;;
48179;SDS011;33975;47.432;18.918;2022-07-06T07:03:06;8.55;;;6.50;;
48179;SDS011;33975;47.432;18.918;2022-07-06T07:05:34;13.57;;;6.60;;
48179;SDS011;33975;47.432;18.918;2022-07-06T07:08:02;11.25;;;5.90;;
48179;SDS011;33975;47.432;18.918;2022-07-06T07:10:32;10.07;;;5.68;;
48179;SDS011;33975;47.432;18.918;2022-07-06T07:13:00;8.50;;;5.43;;
48179;SDS011;33975;47.432;18.918;2022-07-06T07:15:29;12.63;;;5.75;;
48179;SDS011;33975;47.432;18.918;2022-07-06T07:17:57;9.68;;;5.60;;
48179;SDS011;33975;47.432;18.918;2022-07-06T07:20:24;10.57;;;6.00;;
48179;SDS011;33975;47.432;18.918;2022-07-06T07:22:52;8.88;;;5.68;;
48179;SDS011;33975;47.432;18.918;2022-07-06T07:25:20;8.73;;;5.28;;
48179;SDS011;33975;47.432;18.918;2022-07-06T07:27:48;7.57;;;4.78;;
48179;SDS011;33975;47.432;18.918;2022-07-06T07:30:15;6.97;;;4.55;;
48179;SDS011;33975;47.432;18.918;2022-07-06T07:32:43;8.07;;;5.03;;
48179;SDS011;33975;47.432;18.918;2022-07-06T07:35:12;7.75;;;5.07;;
48179;SDS011;33975;47.432;18.918;2022-07-06T07:37:39;7.28;;;4.78;;
48179;SDS011;33975;47.432;18.918;2022-07-06T07:40:07;9.05;;;5.57;;
48179;SDS011;33975;47.432;18.918;2022-07-06T07:42:35;7.55;;;5.03;;
48179;SDS011;33975;47.432;18.918;2022-07-06T07:45:06;5.90;;;4.37;;
48179;SDS011;33975;47.432;18.918;2022-07-06T07:47:37;7.28;;;4.03;;
48179;SDS011;33975;47.432;18.918;2022-07-06T07:50:05;10.45;;;4.55;;
48179;SDS011;33975;47.432;18.918;2022-07-06T07:52:34;8.40;;;5.05;;
48179;SDS011;33975;47.432;18.918;2022-07-06T07:55:02;6.35;;;4.75;;
48179;SDS011;33975;47.432;18.918;2022-07-06T07:57:50;7.87;;;4.85;;
48179;SDS011;33975;47.432;18.918;2022-07-06T08:00:18;6.97;;;5.12;;
48179;SDS011;33975;47.432;18.918;2022-07-06T08:05:21;9.00;;;4.62;;
48179;SDS011;33975;47.432;18.918;2022-07-06T08:07:49;10.80;;;4.60;;
48179;SDS011;33975;47.432;18.918;2022-07-06T08:10:22;6.90;;;4.65;;
48179;SDS011;33975;47.432;18.918;2022-07-06T08:12:56;7.05;;;4.47;;
48179;SDS011;33975;47.432;18.918;2022-07-06T08:15:24;8.05;;;4.85;;
48179;SDS011;33975;47.432;18.918;2022-07-06T08:17:52;7.72;;;4.03;;
48179;SDS011;33975;47.432;18.918;2022-07-06T08:20:19;5.70;;;3.92;;
48179;SDS011;33975;47.432;18.918;2022-07-06T08:22:47;8.90;;;3.95;;
48179;SDS011;33975;47.432;18.918;2022-07-06T08:25:15;6.70;;;3.90;;
48179;SDS011;33975;47.432;18.918;2022-07-06T08:27:43;7.18;;;4.45;;
48179;SDS011;33975;47.432;18.918;2022-07-06T08:30:11;8.05;;;5.60;;
48179;SDS011;33975;47.432;18.918;2022-07-06T08:32:39;10.00;;;4.70;;
48179;SDS011;33975;47.432;18.918;2022-07-06T08:35:30;8.40;;;4.90;;
48179;SDS011;33975;47.432;18.918;2022-07-06T08:37:58;8.50;;;4.53;;
48179;SDS011;33975;47.432;18.918;2022-07-06T08:40:31;7.15;;;5.12;;
48179;SDS011;33975;47.432;18.918;2022-07-06T08:43:02;8.13;;;5.20;;
48179;SDS011;33975;47.432;18.918;2022-07-06T08:45:29;8.70;;;4.78;;
48179;SDS011;33975;47.432;18.918;2022-07-06T08:48:00;6.12;;;4.55;;
48179;SDS011;33975;47.432;18.918;2022-07-06T08:50:37;8.30;;;4.85;;
48179;SDS011;33975;47.432;18.918;2022-07-06T08:53:05;12.18;;;5.20;;
48179;SDS011;33975;47.432;18.918;2022-07-06T08:55:33;7.45;;;5.20;;
48179;SDS011;33975;47.432;18.918;2022-07-06T08:58:04;8.15;;;4.78;;
48179;SDS011;33975;47.432;18.918;2022-07-06T09:00:34;10.40;;;4.50;;
48179;SDS011;33975;47.432;18.918;2022-07-06T09:03:02;6.57;;;4.45;;
48179;SDS011;33975;47.432;18.918;2022-07-06T09:05:31;6.45;;;4.60;;
48179;SDS011;33975;47.432;18.918;2022-07-06T09:07:59;6.22;;;4.37;;
48179;SDS011;33975;47.432;18.918;2022-07-06T09:10:27;9.20;;;4.30;;
48179;SDS011;33975;47.432;18.918;2022-07-06T09:13:02;10.13;;;4.37;;
48179;SDS011;33975;47.432;18.918;2022-07-06T09:15:32;9.48;;;4.53;;
48179;SDS011;33975;47.432;18.918;2022-07-06T09:18:06;5.90;;;4.68;;
48179;SDS011;33975;47.432;18.918;2022-07-06T09:20:35;6.70;;;4.10;;
48179;SDS011;33975;47.432;18.918;2022-07-06T09:23:04;7.55;;;4.20;;
48179;SDS011;33975;47.432;18.918;2022-07-06T09:25:36;7.32;;;4.30;;
48179;SDS011;33975;47.432;18.918;2022-07-06T09:28:04;5.37;;;3.85;;
48179;SDS011;33975;47.432;18.918;2022-07-06T09:30:32;7.22;;;3.50;;
48179;SDS011;33975;47.432;18.918;2022-07-06T09:35:36;6.82;;;3.97;;
48179;SDS011;33975;47.432;18.918;2022-07-06T09:38:07;6.75;;;3.90;;
48179;SDS011;33975;47.432;18.918;2022-07-06T09:40:40;8.68;;;4.53;;
48179;SDS011;33975;47.432;18.918;2022-07-06T09:43:20;5.90;;;3.80;;
48179;SDS011;33975;47.432;18.918;2022-07-06T09:45:54;9.10;;;3.45;;
48179;SDS011;33975;47.432;18.918;2022-07-06T09:48:23;5.12;;;3.20;;
48179;SDS011;33975;47.432;18.918;2022-07-06T09:50:54;6.07;;;3.53;;
48179;SDS011;33975;47.432;18.918;2022-07-06T09:53:26;8.65;;;4.53;;
48179;SDS011;33975;47.432;18.918;2022-07-06T09:55:55;5.97;;;3.40;;
48179;SDS011;33975;47.432;18.918;2022-07-06T09:58:23;7.90;;;4.25;;
48179;SDS011;33975;47.432;18.918;2022-07-06T10:01:11;7.12;;;3.90;;
48179;SDS011;33975;47.432;18.918;2022-07-06T10:03:39;6.93;;;3.87;;
48179;SDS011;33975;47.432;18.918;2022-07-06T10:06:08;5.82;;;3.47;;
48179;SDS011;33975;47.432;18.918;2022-07-06T10:08:35;8.07;;;3.80;;
48179;SDS011;33975;47.432;18.918;2022-07-06T10:11:04;5.30;;;3.60;;
48179;SDS011;33975;47.432;18.918;2022-07-06T10:13:33;5.80;;;3.30;;
48179;SDS011;33975;47.432;18.918;2022-07-06T10:16:02;5.85;;;3.35;;
48179;SDS011;33975;47.432;18.918;2022-07-06T10:18:30;8.00;;;3.60;;
48179;SDS011;33975;47.432;18.918;2022-07-06T10:20:59;6.18;;;3.47;;
48179;SDS011;33975;47.432;18.918;2022-07-06T10:23:27;5.07;;;3.00;;
48179;SDS011;33975;47.432;18.918;2022-07-06T10:25:56;4.87;;;2.65;;
48179;SDS011;33975;47.432;18.918;2022-07-06T10:28:24;5.60;;;2.95;;
48179;SDS011;33975;47.432;18.918;2022-07-06T10:30:52;5.10;;;2.78;;
48179;SDS011;33975;47.432;18.918;2022-07-06T10:33:20;5.85;;;3.22;;
48179;SDS011;33975;47.432;18.918;2022-07-06T10:35:54;5.57;;;2.70;;
48179;SDS011;33975;47.432;18.918;2022-07-06T10:38:30;11.60;;;3.35;;
48179;SDS011;33975;47.432;18.918;2022-07-06T10:41:05;33.00;;;6.70;;
48179;SDS011;33975;47.432;18.918;2022-07-06T10:43:36;5.22;;;2.72;;
48179;SDS011;33975;47.432;18.918;2022-07-06T10:46:10;5.28;;;2.65;;
48179;SDS011;33975;47.432;18.918;2022-07-06T10:48:40;4.80;;;2.67;;
48179;SDS011;33975;47.432;18.918;2022-07-06T10:51:11;6.15;;;2.72;;
48179;SDS011;33975;47.432;18.918;2022-07-06T10:53:40;5.68;;;2.50;;
48179;SDS011;33975;47.432;18.918;2022-07-06T10:56:09;5.93;;;2.58;;
48179;SDS011;33975;47.432;18.918;2022-07-06T11:01:13;4.97;;;2.95;;
48179;SDS011;33975;47.432;18.918;2022-07-06T11:08:45;5.68;;;3.37;;
48179;SDS011;33975;47.432;18.918;2022-07-06T11:14:06;4.97;;;3.00;;
48179;SDS011;33975;47.432;18.918;2022-07-06T11:19:25;6.90;;;2.95;;
48179;SDS011;33975;47.432;18.918;2022-07-06T11:21:56;5.30;;;2.90;;
48179;SDS011;33975;47.432;18.918;2022-07-06T11:24:26;4.85;;;2.37;;
48179;SDS011;33975;47.432;18.918;2022-07-06T11:26:55;5.97;;;3.05;;
48179;SDS011;33975;47.432;18.918;2022-07-06T11:29:24;4.70;;;2.70;;
48179;SDS011;33975;47.432;18.918;2022-07-06T11:31:56;4.93;;;2.97;;
48179;SDS011;33975;47.432;18.918;2022-07-06T11:34:29;4.87;;;2.75;;
48179;SDS011;33975;47.432;18.918;2022-07-06T11:36:59;5.37;;;3.25;;
48179;SDS011;33975;47.432;18.918;2022-07-06T11:39:29;4.87;;;2.62;;
48179;SDS011;33975;47.432;18.918;2022-07-06T11:41:57;3.95;;;1.90;;
48179;SDS011;33975;47.432;18.918;2022-07-06T11:44:25;5.87;;;2.72;;
48179;SDS011;33975;47.432;18.918;2022-07-06T11:46:57;5.03;;;2.60;;
48179;SDS011;33975;47.432;18.918;2022-07-06T11:49:28;4.15;;;2.37;;
48179;SDS011;33975;47.432;18.918;2022-07-06T11:51:59;6.97;;;2.30;;
48179;SDS011;33975;47.432;18.918;2022-07-06T11:54:27;4.65;;;2.40;;
48179;SDS011;33975;47.432;18.918;2022-07-06T11:56:57;5.65;;;2.30;;
48179;SDS011;33975;47.432;18.918;2022-07-06T11:59:29;3.97;;;2.17;;
48179;SDS011;33975;47.432;18.918;2022-07-06T12:04:36;6.95;;;2.85;;
48179;SDS011;33975;47.432;18.918;2022-07-06T12:07:09;5.55;;;2.60;;
48179;SDS011;33975;47.432;18.918;2022-07-06T12:10:08;5.68;;;2.50;;
48179;SDS011;33975;47.432;18.918;2022-07-06T12:15:26;5.40;;;2.70;;
48179;SDS011;33975;47.432;18.918;2022-07-06T12:17:54;6.60;;;2.70;;
48179;SDS011;33975;47.432;18.918;2022-07-06T12:20:22;5.55;;;2.87;;
48179;SDS011;33975;47.432;18.918;2022-07-06T12:23:00;4.95;;;2.75;;
48179;SDS011;33975;47.432;18.918;2022-07-06T12:25:33;6.47;;;2.60;;
48179;SDS011;33975;47.432;18.918;2022-07-06T12:28:02;5.70;;;2.42;;
48179;SDS011;33975;47.432;18.918;2022-07-06T12:30:30;4.80;;;2.92;;
48179;SDS011;33975;47.432;18.918;2022-07-06T12:33:12;6.07;;;2.42;;
48179;SDS011;33975;47.432;18.918;2022-07-06T12:35:45;4.70;;;2.55;;
48179;SDS011;33975;47.432;18.918;2022-07-06T12:38:26;5.30;;;2.60;;
48179;SDS011;33975;47.432;18.918;2022-07-06T12:40:54;6.75;;;2.90;;
48179;SDS011;33975;47.432;18.918;2022-07-06T12:43:38;6.00;;;2.60;;
48179;SDS011;33975;47.432;18.918;2022-07-06T12:48:58;6.40;;;3.62;;
48179;SDS011;33975;47.432;18.918;2022-07-06T12:51:48;4.45;;;2.78;;
48179;SDS011;33975;47.432;18.918;2022-07-06T12:54:22;5.80;;;2.58;;
48179;SDS011;33975;47.432;18.918;2022-07-06T12:59:28;8.85;;;3.20;;
48179;SDS011;33975;47.432;18.918;2022-07-06T13:01:57;7.30;;;2.67;;
48179;SDS011;33975;47.432;18.918;2022-07-06T13:04:30;6.85;;;2.80;;
48179;SDS011;33975;47.432;18.918;2022-07-06T13:07:01;7.78;;;2.58;;
48179;SDS011;33975;47.432;18.918;2022-07-06T13:09:34;4.30;;;2.30;;
48179;SDS011;33975;47.432;18.918;2022-07-06T13:12:02;4.10;;;2.17;;
48179;SDS011;33975;47.432;18.918;2022-07-06T13:14:33;4.20;;;2.33;;
48179;SDS011;33975;47.432;18.918;2022-07-06T13:17:00;4.37;;;2.22;;
48179;SDS011;33975;47.432;18.918;2022-07-06T13:19:29;5.28;;;2.15;;
48179;SDS011;33975;47.432;18.918;2022-07-06T13:21:56;3.78;;;1.98;;
48179;SDS011;33975;47.432;18.918;2022-07-06T13:24:24;6.22;;;2.28;;
48179;SDS011;33975;47.432;18.918;2022-07-06T13:26:56;6.62;;;2.28;;
48179;SDS011;33975;47.432;18.918;2022-07-06T13:29:37;6.40;;;2.25;;
48179;SDS011;33975;47.432;18.918;2022-07-06T13:37:54;4.43;;;2.17;;
48179;SDS011;33975;47.432;18.918;2022-07-06T13:40:22;6.47;;;2.33;;
48179;SDS011;33975;47.432;18.918;2022-07-06T13:42:49;5.70;;;2.40;;
48179;SDS011;33975;47.432;18.918;2022-07-06T13:45:22;7.15;;;2.45;;
48179;SDS011;33975;47.432;18.918;2022-07-06T13:47:49;6.35;;;2.67;;
48179;SDS011;33975;47.432;18.918;2022-07-06T13:50:17;6.03;;;2.42;;
48179;SDS011;33975;47.432;18.918;2022-07-06T13:52:45;5.60;;;2.55;;
48179;SDS011;33975;47.432;18.918;2022-07-06T13:55:12;7.50;;;2.30;;
48179;SDS011;33975;47.432;18.918;2022-07-06T13:57:40;4.37;;;1.90;;
48179;SDS011;33975;47.432;18.918;2022-07-06T14:00:10;5.32;;;2.55;;
48179;SDS011;33975;47.432;18.918;2022-07-06T14:02:39;5.00;;;2.28;;
48179;SDS011;33975;47.432;18.918;2022-07-06T14:05:09;8.45;;;2.53;;
48179;SDS011;33975;47.432;18.918;2022-07-06T14:07:39;6.00;;;2.47;;
48179;SDS011;33975;47.432;18.918;2022-07-06T14:10:07;4.47;;;2.33;;
48179;SDS011;33975;47.432;18.918;2022-07-06T14:12:35;4.28;;;2.35;;
48179;SDS011;33975;47.432;18.918;2022-07-06T14:15:02;5.18;;;2.78;;
48179;SDS011;33975;47.432;18.918;2022-07-06T14:17:30;8.00;;;2.80;;
48179;SDS011;33975;47.432;18.918;2022-07-06T14:19:58;4.82;;;2.03;;
48179;SDS011;33975;47.432;18.918;2022-07-06T14:22:26;4.53;;;2.35;;
48179;SDS011;33975;47.432;18.918;2022-07-06T14:24:54;5.75;;;2.42;;
48179;SDS011;33975;47.432;18.918;2022-07-06T14:27:22;5.43;;;2.10;;
48179;SDS011;33975;47.432;18.918;2022-07-06T14:29:50;3.75;;;1.90;;
48179;SDS011;33975;47.432;18.918;2022-07-06T14:32:17;4.20;;;2.10;;
48179;SDS011;33975;47.432;18.918;2022-07-06T14:34:45;3.08;;;1.70;;
48179;SDS011;33975;47.432;18.918;2022-07-06T14:37:13;5.05;;;1.92;;
48179;SDS011;33975;47.432;18.918;2022-07-06T14:39:46;3.15;;;1.67;;
48179;SDS011;33975;47.432;18.918;2022-07-06T14:42:16;3.00;;;1.40;;
48179;SDS011;33975;47.432;18.918;2022-07-06T14:44:43;4.05;;;1.40;;
48179;SDS011;33975;47.432;18.918;2022-07-06T14:47:11;4.68;;;1.55;;
48179;SDS011;33975;47.432;18.918;2022-07-06T14:49:39;3.40;;;1.60;;
48179;SDS011;33975;47.432;18.918;2022-07-06T14:52:08;2.97;;;1.30;;
48179;SDS011;33975;47.432;18.918;2022-07-06T14:54:39;2.15;;;1.20;;
48179;SDS011;33975;47.432;18.918;2022-07-06T14:57:10;3.12;;;1.52;;
48179;SDS011;33975;47.432;18.918;2022-07-06T14:59:38;3.33;;;1.33;;
48179;SDS011;33975;47.432;18.918;2022-07-06T15:02:08;1.60;;;1.20;;
48179;SDS011;33975;47.432;18.918;2022-07-06T15:04:36;2.45;;;1.30;;
48179;SDS011;33975;47.432;18.918;2022-07-06T15:07:04;4.50;;;1.40;;
48179;SDS011;33975;47.432;18.918;2022-07-06T15:09:34;3.53;;;1.50;;
48179;SDS011;33975;47.432;18.918;2022-07-06T15:12:02;3.87;;;1.55;;
48179;SDS011;33975;47.432;18.918;2022-07-06T15:14:31;3.37;;;1.48;;
48179;SDS011;33975;47.432;18.918;2022-07-06T15:16:58;2.95;;;1.40;;
48179;SDS011;33975;47.432;18.918;2022-07-06T15:19:28;3.35;;;1.25;;
48179;SDS011;33975;47.432;18.918;2022-07-06T15:21:58;2.83;;;1.37;;